Blythe, CA (92225)

6:12 PM PDT on August 30, 2015 (GMT -0700)
farmerman92225 | | Change Station
CLOSE
Current Station
Personal Weather Station
Location: Blythe, CA
Elevation: 259 ft
Nearby Weather Stations

Elev 259 ft 33.62 °N, 114.66 °W | Updated 3 seconds ago

Clear
Clear
105.6 °F
Feels Like 102 °F
N
8.0
Wind Variable Wind from WSW
Gusts 8.0 mph

Today
High -- | Low -- °F
--% Chance of Precip.
Yesterday
High -- | Low -- °F
Precip. -- in
6:10 AM 7:06 PM
Full, 98% visible
Pressure 29.62 in
Visibility 10.0 miles
Clouds Clear
Heat Index 102 °F
Dew Point 47 °F
Humidity 14%
Rainfall 0.00 in
Snow Depth Not available.
UV 1 out of 12
Pollen 6.80 out of 12
Air Quality Not available.
Flu Activity Not available.
METAR KBLH 310052Z AUTO 24010KT 10SM CLR 42/07 A2965 RMK AO2 SLP031 T04220067
Pressure 29.62 in
Visibility 10.0 miles
Clouds Clear
Heat Index 102 °F
Dew Point 47 °F
Humidity 14%
Rainfall 0.00 in
Snow Depth Not available.
UV 1 out of 12
Pollen 6.80 out of 12
Air Quality Not available.
Flu Activity Not available.
METAR KBLH 310052Z AUTO 24010KT 10SM CLR 42/07 A2965 RMK AO2 SLP031 T04220067

10-Day Weather Forecast

×

Almanac

Astronomy

Aug. 30, 2015 Rise Set
Actual Time
Civil Twilight
Nautical Twilight
Astronomical Twilight
Moon
Length of Visible Light
Length of Day
Tomorrow will be .
, % of the Moon is Illuminated

Today's Extremes

State Highs State Lows

Community

WunderPhotos

Upload Photos

1,851,131 photos uploaded!

WunderBlogs® & News

Nearby

Air Quality

  Air Quality AQ Index Pollutant
Not available.

Snow Depth

Station Depth Elevation

Earthquake Activity

City Distance Mag. Time & Date
Minimum magnitude displayed is 2.5.

Coastal Water Temperatures

Place Temperature

Stations

Nearby Weather Stations

Station Location Temp. Windchill Dew Point Humidity Wind Precip. Elev Updated Type